Station Historical Data
Daily Summary for January 3, 2017 Units:  English    Metric   Both
Next Day »
Daily Weekly Monthly Yearly Custom
  High: Low: Average:
Temperature: 44.0 °F 33.2 °F 37 °F
Dew Point: 43.2 °F 31.9 °F 35.9 °F
Humidity: 97% 95% 96%
Wind Speed: 30.0mph 0.0mph 9.9mph
Wind Gust: 42.0mph - -
Wind- - SSE
Pressure: 30.21 in 29.95 in -
Precipitation: 1.44 in    
Historical Graphs
 
 
Tabular Data for January 3, 2017
Time Temperature Dew Point Pressure Wind Wind Speed Wind Gust Humidity Rainfall Rate (Hourly) solar Conditions
00:03 34.7 °F 33.7 °F 30.18 in South 16.0 mph 19.0 mph 96% 0.00 in 0.00 W/m2
00:08 34.8 °F 33.8 °F 30.18 in South 9.0 mph 18.0 mph 96% 0.00 in 0.00 W/m2
00:13 34.8 °F 33.8 °F 30.18 in SE 14.0 mph 23.0 mph 96% 0.00 in 0.00 W/m2
00:18 34.8 °F 33.8 °F 30.18 in SSE 7.0 mph 17.0 mph 96% 0.00 in 0.00 W/m2
00:23 34.8 °F 33.8 °F 30.19 in South 12.0 mph 16.0 mph 96% 0.00 in 0.00 W/m2
00:28 34.8 °F 33.8 °F 30.18 in SE 9.0 mph 14.0 mph 96% 0.00 in 0.00 W/m2
00:33 34.9 °F 33.9 °F 30.19 in SSW 11.0 mph 20.0 mph 96% 0.00 in 0.00 W/m2
00:38 34.9 °F 33.9 °F 30.18 in South 5.0 mph 25.0 mph 96% 0.00 in 0.00 W/m2
00:43 34.9 °F 33.9 °F 30.18 in South 18.0 mph 19.0 mph 96% 0.00 in 0.00 W/m2
00:48 34.9 °F 33.9 °F 30.19 in SSE 11.0 mph 16.0 mph 96% 0.00 in 0.00 W/m2
00:53 34.8 °F 33.8 °F 30.19 in South 9.0 mph 25.0 mph 96% 0.00 in 0.00 W/m2
00:59 34.8 °F 33.8 °F 30.19 in SE 11.0 mph 18.0 mph 96% 0.00 in 0.00 W/m2
01:04 34.7 °F 33.7 °F 30.19 in South 7.0 mph 21.0 mph 96% 0.00 in 0.00 W/m2
01:09 34.7 °F 33.7 °F 30.19 in SSW 7.0 mph 14.0 mph 96% 0.00 in 0.00 W/m2
01:14 34.6 °F 33.3 °F 30.19 in SW 11.0 mph 18.0 mph 95% 0.00 in 0.00 W/m2
01:19 34.4 °F 33.1 °F 30.19 in SSE 12.0 mph 14.0 mph 95% 0.00 in 0.00 W/m2
01:24 34.3 °F 33.0 °F 30.18 in SSE 10.0 mph 19.0 mph 95% 0.00 in 0.00 W/m2
01:29 34.2 °F 32.9 °F 30.19 in South 6.0 mph 18.0 mph 95% 0.00 in 0.00 W/m2
01:34 34.1 °F 32.8 °F 30.19 in South 10.0 mph 16.0 mph 95% 0.08 in 0.00 W/m2
01:39 33.9 °F 32.6 °F 30.19 in South 9.0 mph 14.0 mph 95% 0.08 in 0.00 W/m2
01:44 33.8 °F 32.5 °F 30.19 in South 13.0 mph 13.0 mph 95% 0.09 in 0.00 W/m2
01:49 33.8 °F 32.5 °F 30.19 in SE 12.0 mph 17.0 mph 95% 0.07 in 0.00 W/m2
01:54 33.8 °F 32.5 °F 30.19 in SSW 8.0 mph 18.0 mph 95% 0.07 in 0.00 W/m2
01:59 33.9 °F 32.6 °F 30.19 in South 11.0 mph 19.0 mph 95% 0.06 in 0.00 W/m2
02:04 33.9 °F 32.6 °F 30.20 in SSE 8.0 mph 23.0 mph 95% 0.04 in 0.00 W/m2
02:09 34.0 °F 32.7 °F 30.20 in South 13.0 mph 18.0 mph 95% 0.00 in 0.00 W/m2
02:14 34.1 °F 32.8 °F 30.20 in South 7.0 mph 18.0 mph 95% 0.00 in 0.00 W/m2
02:19 34.2 °F 33.2 °F 30.21 in SSE 6.0 mph 19.0 mph 96% 0.00 in 0.00 W/m2
02:24 34.3 °F 33.3 °F 30.21 in South 3.0 mph 16.0 mph 96% 0.00 in 0.00 W/m2
02:29 34.4 °F 33.4 °F 30.21 in SSE 19.0 mph 19.0 mph 96% 0.00 in 0.00 W/m2
02:34 34.4 °F 33.4 °F 30.21 in SSE 8.0 mph 16.0 mph 96% 0.00 in 0.00 W/m2
02:39 34.4 °F 33.4 °F 30.21 in SSW 13.0 mph 17.0 mph 96% 0.00 in 0.00 W/m2
02:44 34.5 °F 33.5 °F 30.21 in South 8.0 mph 16.0 mph 96% 0.00 in 0.00 W/m2
02:49 34.6 °F 33.6 °F 30.20 in SSE 9.0 mph 13.0 mph 96% 0.00 in 0.00 W/m2
02:54 34.6 °F 33.6 °F 30.20 in South 8.0 mph 13.0 mph 96% 0.07 in 0.00 W/m2
02:59 34.5 °F 33.5 °F 30.20 in South 8.0 mph 13.0 mph 96% 0.12 in 0.00 W/m2
03:04 34.4 °F 33.1 °F 30.21 in SSW 7.0 mph 14.0 mph 95% 0.17 in 0.00 W/m2
03:09 34.3 °F 33.3 °F 30.21 in SW 6.0 mph 9.0 mph 96% 0.18 in 0.00 W/m2
03:14 34.1 °F 33.1 °F 30.20 in Calm   6.0 mph 96% 0.24 in 0.00 W/m2
03:19 33.9 °F 32.6 °F 30.20 in Calm     95% 0.21 in 0.00 W/m2
03:24 33.6 °F 32.3 °F 30.20 in Calm     95% 0.14 in 0.00 W/m2
03:29 33.5 °F 32.2 °F 30.20 in Calm     95% 0.14 in 0.00 W/m2
03:34 33.3 °F 32.0 °F 30.20 in Calm     95% 0.12 in 0.00 W/m2
03:39 33.2 °F 31.9 °F 30.20 in SSE 5.0 mph 15.0 mph 95% 0.13 in 0.00 W/m2
03:44 33.3 °F 32.0 °F 30.20 in SSW 7.0 mph 9.0 mph 95% 0.12 in 0.00 W/m2
03:49 33.2 °F 31.9 °F 30.20 in South 3.0 mph 14.0 mph 95% 0.16 in 0.00 W/m2
03:54 33.2 °F 31.9 °F 30.20 in SSE 13.0 mph 15.0 mph 95% 0.22 in 0.00 W/m2
03:59 33.4 °F 32.1 °F 30.20 in Calm   13.0 mph 95% 0.25 in 0.00 W/m2
04:04 33.6 °F 32.6 °F 30.20 in Calm     96% 0.26 in 0.00 W/m2
04:09 33.7 °F 32.7 °F 30.20 in SSE 11.0 mph 11.0 mph 96% 0.10 in 0.00 W/m2
04:14 33.8 °F 32.8 °F 30.20 in WSW 6.0 mph 12.0 mph 96% 0.07 in 0.00 W/m2
04:19 34.0 °F 33.0 °F 30.20 in SSW 2.0 mph 3.0 mph 96% 0.13 in 0.00 W/m2
04:24 34.1 °F 33.1 °F 30.20 in Calm   6.0 mph 96% 0.10 in 0.00 W/m2
04:29 34.3 °F 33.3 °F 30.20 in SSW 8.0 mph 10.0 mph 96% 0.14 in 0.00 W/m2
04:34 34.4 °F 33.4 °F 30.20 in Calm   9.0 mph 96% 0.09 in 0.00 W/m2
04:39 34.5 °F 33.5 °F 30.20 in Calm   5.0 mph 96% 0.20 in 0.00 W/m2
04:44 34.5 °F 33.5 °F 30.20 in Calm     96% 0.16 in 0.00 W/m2
04:49 34.5 °F 33.5 °F 30.20 in South 5.0 mph 12.0 mph 96% 0.12 in 0.00 W/m2
04:54 34.5 °F 33.5 °F 30.19 in SSW 9.0 mph 20.0 mph 96% 0.09 in 0.00 W/m2
04:59 34.7 °F 33.7 °F 30.19 in South 1.0 mph 14.0 mph 96% 0.13 in 0.00 W/m2
05:04 34.9 °F 33.9 °F 30.19 in SSW 12.0 mph 15.0 mph 96% 0.06 in 0.00 W/m2
05:09 35.0 °F 34.0 °F 30.19 in SSW 14.0 mph 21.0 mph 96% 0.04 in 0.00 W/m2
05:14 35.2 °F 34.2 °F 30.19 in South 10.0 mph 13.0 mph 96% 0.04 in 0.00 W/m2
05:19 35.3 °F 34.3 °F 30.19 in South 7.0 mph 13.0 mph 96% 0.04 in 0.00 W/m2
05:24 35.4 °F 34.4 °F 30.19 in SSW 3.0 mph 12.0 mph 96% 0.05 in 0.00 W/m2
05:29 35.5 °F 34.5 °F 30.20 in Calm   12.0 mph 96% 0.05 in 0.00 W/m2
05:34 35.6 °F 34.6 °F 30.20 in South 12.0 mph 16.0 mph 96% 0.05 in 0.00 W/m2
05:39 35.6 °F 34.6 °F 30.19 in SSE 9.0 mph 12.0 mph 96% 0.00 in 0.00 W/m2
05:44 35.7 °F 34.7 °F 30.19 in Calm   14.0 mph 96% 0.00 in 0.00 W/m2
05:49 35.7 °F 34.7 °F 30.19 in South 10.0 mph 17.0 mph 96% 0.00 in 0.00 W/m2
05:54 35.8 °F 34.8 °F 30.19 in SSE 7.0 mph 12.0 mph 96% 0.00 in 0.00 W/m2
05:59 35.7 °F 34.7 °F 30.19 in South 13.0 mph 18.0 mph 96% 0.00 in 0.00 W/m2
06:04 35.7 °F 34.7 °F 30.18 in SSE 6.0 mph 17.0 mph 96% 0.00 in 0.00 W/m2
06:09 35.7 °F 34.7 °F 30.18 in SE 8.0 mph 15.0 mph 96% 0.00 in 0.00 W/m2
06:14 35.7 °F 34.7 °F 30.18 in SSE 14.0 mph 19.0 mph 96% 0.00 in 0.00 W/m2
06:19 35.7 °F 34.7 °F 30.18 in SE 1.0 mph 19.0 mph 96% 0.00 in 0.00 W/m2
06:24 35.7 °F 34.7 °F 30.18 in SSE 10.0 mph 17.0 mph 96% 0.00 in 0.00 W/m2
06:29 35.5 °F 34.5 °F 30.18 in SSE 4.0 mph 15.0 mph 96% 0.00 in 0.00 W/m2
06:30 35.5 °F 34.5 °F 30.18 in Calm   15.0 mph 96% 0.00 in 0.00 W/m2
06:35 35.4 °F 34.4 °F 30.18 in SE 8.0 mph 14.0 mph 96% 0.00 in 0.00 W/m2
06:40 35.3 °F 34.3 °F 30.18 in SSE 9.0 mph 23.0 mph 96% 0.00 in 0.00 W/m2
06:45 35.2 °F 34.2 °F 30.18 in SSE 7.0 mph 16.0 mph 96% 0.04 in 0.00 W/m2
06:50 35.1 °F 34.1 °F 30.17 in SSE 7.0 mph 17.0 mph 96% 0.04 in 0.00 W/m2
06:55 35.0 °F 34.0 °F 30.17 in SSE 11.0 mph 19.0 mph 96% 0.04 in 0.00 W/m2
07:00 35.0 °F 34.0 °F 30.17 in SSE 9.0 mph 15.0 mph 96% 0.05 in 0.00 W/m2
07:05 35.0 °F 34.0 °F 30.17 in SSE 14.0 mph 18.0 mph 96% 0.05 in 0.00 W/m2
07:10 34.9 °F 33.9 °F 30.17 in SSE 7.0 mph 18.0 mph 96% 0.04 in 0.00 W/m2
07:15 34.9 °F 33.9 °F 30.17 in Calm   17.0 mph 96% 0.00 in 0.00 W/m2
07:20 34.8 °F 33.8 °F 30.17 in South 11.0 mph 17.0 mph 96% 0.00 in 0.00 W/m2
07:25 34.8 °F 33.8 °F 30.18 in SE 13.0 mph 18.0 mph 96% 0.00 in 0.00 W/m2
07:30 34.8 °F 33.8 °F 30.17 in SE 6.0 mph 14.0 mph 96% 0.00 in 0.00 W/m2
07:35 34.8 °F 33.8 °F 30.17 in South 9.0 mph 19.0 mph 96% 0.04 in 0.00 W/m2
07:40 34.7 °F 33.7 °F 30.17 in SSE 10.0 mph 15.0 mph 96% 0.04 in 0.00 W/m2
07:46 34.7 °F 33.7 °F 30.17 in Calm   17.0 mph 96% 0.05 in 5.00 W/m2
07:51 34.7 °F 33.7 °F 30.17 in South 9.0 mph 16.0 mph 96% 0.05 in 7.00 W/m2
07:56 34.8 °F 33.8 °F 30.17 in Calm   15.0 mph 96% 0.05 in 9.00 W/m2
08:01 34.8 °F 33.8 °F 30.17 in SSE 9.0 mph 19.0 mph 96% 0.04 in 12.00 W/m2
08:06 34.8 °F 33.8 °F 30.18 in SSE 8.0 mph 19.0 mph 96% 0.00 in 19.00 W/m2
08:11 34.8 °F 33.8 °F 30.18 in SSE 7.0 mph 13.0 mph 96% 0.00 in 7.00 W/m2
08:16 34.8 °F 33.8 °F 30.18 in SSE 13.0 mph 20.0 mph 96% 0.00 in 9.00 W/m2
08:21 34.8 °F 33.8 °F 30.18 in SSE 9.0 mph 15.0 mph 96% 0.05 in 7.00 W/m2
08:26 34.8 °F 33.8 °F 30.18 in SSE 10.0 mph 18.0 mph 96% 0.05 in 7.00 W/m2
08:31 34.9 °F 33.9 °F 30.18 in South 5.0 mph 20.0 mph 96% 0.05 in 23.00 W/m2
08:36 35.0 °F 34.0 °F 30.19 in SSE 13.0 mph 19.0 mph 96% 0.05 in 25.00 W/m2
08:41 35.0 °F 34.0 °F 30.19 in SE 7.0 mph 16.0 mph 96% 0.05 in 12.00 W/m2
08:46 35.0 °F 34.0 °F 30.18 in SSE 12.0 mph 21.0 mph 96% 0.07 in 18.00 W/m2
08:51 35.0 °F 34.0 °F 30.18 in SE 9.0 mph 19.0 mph 96% 0.07 in 19.00 W/m2
08:56 35.0 °F 34.0 °F 30.18 in SE 13.0 mph 14.0 mph 96% 0.07 in 16.00 W/m2
09:01 35.0 °F 34.0 °F 30.18 in SE 9.0 mph 18.0 mph 96% 0.07 in 21.00 W/m2
09:06 35.1 °F 34.1 °F 30.18 in SE 5.0 mph 21.0 mph 96% 0.07 in 21.00 W/m2
09:11 35.1 °F 34.1 °F 30.18 in SSE 11.0 mph 16.0 mph 96% 0.06 in 25.00 W/m2
09:16 35.1 °F 34.1 °F 30.18 in SSE 8.0 mph 15.0 mph 96% 0.06 in 33.00 W/m2
09:21 35.1 °F 34.1 °F 30.17 in SSE 16.0 mph 20.0 mph 96% 0.08 in 47.00 W/m2
09:26 35.1 °F 34.1 °F 30.17 in SSE 13.0 mph 17.0 mph 96% 0.06 in 58.00 W/m2
09:31 35.2 °F 34.2 °F 30.18 in SSE 11.0 mph 18.0 mph 96% 0.06 in 54.00 W/m2
09:36 35.2 °F 34.2 °F 30.17 in SE 11.0 mph 17.0 mph 96% 0.07 in 46.00 W/m2
09:41 35.3 °F 34.3 °F 30.17 in SSE 8.0 mph 13.0 mph 96% 0.07 in 46.00 W/m2
09:46 35.3 °F 34.3 °F 30.18 in SSE 10.0 mph 10.0 mph 96% 0.08 in 46.00 W/m2
09:51 35.3 °F 34.3 °F 30.18 in Calm     96% 0.07 in 53.00 W/m2
09:56 35.3 °F 34.3 °F 30.18 in SE 5.0 mph 13.0 mph 96% 0.05 in 51.00 W/m2
10:01 35.3 °F 34.3 °F 30.18 in SE 10.0 mph 13.0 mph 96% 0.04 in 51.00 W/m2
10:06 35.3 °F 34.3 °F 30.18 in SE 4.0 mph 15.0 mph 96% 0.04 in 54.00 W/m2
10:11 35.3 °F 34.3 °F 30.17 in SSE 5.0 mph 17.0 mph 96% 0.04 in 58.00 W/m2
10:16 35.4 °F 34.4 °F 30.18 in SSE 10.0 mph 18.0 mph 96% 0.04 in 60.00 W/m2
10:21 35.4 °F 34.4 °F 30.18 in SSE 10.0 mph 13.0 mph 96% 0.04 in 65.00 W/m2
10:26 35.5 °F 34.5 °F 30.18 in SSE 5.0 mph 19.0 mph 96% 0.04 in 76.00 W/m2
10:31 35.6 °F 34.6 °F 30.18 in SSE 8.0 mph 20.0 mph 96% 0.05 in 67.00 W/m2
10:36 35.7 °F 34.7 °F 30.18 in SE 8.0 mph 8.0 mph 96% 0.05 in 95.00 W/m2
10:41 35.9 °F 34.9 °F 30.17 in SSE 8.0 mph 21.0 mph 96% 0.04 in 111.00 W/m2
10:46 36.0 °F 35.0 °F 30.17 in SE 7.0 mph 21.0 mph 96% 0.04 in 135.00 W/m2
10:51 36.1 °F 35.1 °F 30.17 in SSE 7.0 mph 16.0 mph 96% 0.04 in 125.00 W/m2
10:56 36.1 °F 35.1 °F 30.16 in SSE 9.0 mph 15.0 mph 96% 0.04 in 118.00 W/m2
11:01 36.2 °F 35.2 °F 30.16 in SSE 8.0 mph 10.0 mph 96% 0.00 in 123.00 W/m2
11:06 36.2 °F 35.2 °F 30.15 in SE 15.0 mph 16.0 mph 96% 0.00 in 100.00 W/m2
11:11 36.3 °F 35.3 °F 30.15 in SSE 4.0 mph 8.0 mph 96% 0.00 in 97.00 W/m2
11:16 36.3 °F 35.3 °F 30.14 in SSE 9.0 mph 13.0 mph 96% 0.00 in 116.00 W/m2
11:21 36.3 °F 35.3 °F 30.15 in SSE 7.0 mph 7.0 mph 96% 0.00 in 105.00 W/m2
11:26 36.4 °F 35.4 °F 30.15 in SE 9.0 mph 9.0 mph 96% 0.00 in 120.00 W/m2
11:31 36.4 °F 35.4 °F 30.15 in SE 4.0 mph 5.0 mph 96% 0.00 in 97.00 W/m2
11:36 36.4 °F 35.4 °F 30.14 in SE 7.0 mph 8.0 mph 96% 0.00 in 93.00 W/m2
11:41 36.3 °F 35.3 °F 30.14 in SE 10.0 mph 10.0 mph 96% 0.00 in 113.00 W/m2
11:46 36.3 °F 35.3 °F 30.14 in SE 12.0 mph 12.0 mph 96% 0.00 in 105.00 W/m2
11:51 36.4 °F 35.4 °F 30.14 in SE 11.0 mph 12.0 mph 96% 0.00 in 90.00 W/m2
11:56 36.4 °F 35.4 °F 30.14 in SE 11.0 mph 12.0 mph 96% 0.00 in 97.00 W/m2
12:01 36.4 °F 35.4 °F 30.13 in SE 7.0 mph 9.0 mph 96% 0.00 in 90.00 W/m2
12:06 36.4 °F 35.4 °F 30.13 in SE 10.0 mph 13.0 mph 96% 0.00 in 95.00 W/m2
12:11 36.4 °F 35.4 °F 30.12 in SE 5.0 mph 8.0 mph 96% 0.00 in 84.00 W/m2
12:16 36.4 °F 35.4 °F 30.12 in SSE 8.0 mph 9.0 mph 96% 0.00 in 97.00 W/m2
12:21 36.4 °F 35.4 °F 30.11 in SE 7.0 mph 8.0 mph 96% 0.00 in 88.00 W/m2
12:26 36.4 °F 35.4 °F 30.12 in SE 10.0 mph 13.0 mph 96% 0.00 in 95.00 W/m2
12:31 36.6 °F 35.6 °F 30.10 in SSE 11.0 mph 17.0 mph 96% 0.00 in 111.00 W/m2
12:36 36.8 °F 35.8 °F 30.10 in SE 5.0 mph 15.0 mph 96% 0.00 in 91.00 W/m2
12:41 36.9 °F 35.9 °F 30.10 in SE 11.0 mph 13.0 mph 96% 0.00 in 88.00 W/m2
12:46 37.0 °F 36.0 °F 30.10 in SE 19.0 mph 20.0 mph 96% 0.00 in 111.00 W/m2
12:51 37.0 °F 36.0 °F 30.09 in SE 9.0 mph 23.0 mph 96% 0.00 in 118.00 W/m2
12:56 37.0 °F 36.0 °F 30.09 in SSE 13.0 mph 15.0 mph 96% 0.00 in 91.00 W/m2
13:01 37.1 °F 36.1 °F 30.09 in SE 5.0 mph 19.0 mph 96% 0.00 in 79.00 W/m2
13:06 37.1 °F 36.1 °F 30.09 in SE 10.0 mph 15.0 mph 96% 0.00 in 77.00 W/m2
13:11 37.1 °F 36.1 °F 30.08 in SSE 9.0 mph 15.0 mph 96% 0.00 in 74.00 W/m2
13:16 37.1 °F 36.1 °F 30.08 in ESE 9.0 mph 12.0 mph 96% 0.00 in 76.00 W/m2
13:21 37.2 °F 36.2 °F 30.08 in SSE 8.0 mph 10.0 mph 96% 0.00 in 83.00 W/m2
13:26 37.2 °F 36.2 °F 30.08 in ESE 14.0 mph 14.0 mph 96% 0.00 in 88.00 W/m2
13:31 37.2 °F 36.2 °F 30.08 in SSE 9.0 mph 10.0 mph 96% 0.00 in 90.00 W/m2
13:36 37.3 °F 36.3 °F 30.08 in SE 8.0 mph 13.0 mph 96% 0.00 in 74.00 W/m2
13:41 37.4 °F 36.4 °F 30.08 in SSE 7.0 mph 13.0 mph 96% 0.00 in 70.00 W/m2
13:46 37.4 °F 36.4 °F 30.08 in SSE 7.0 mph 10.0 mph 96% 0.00 in 62.00 W/m2
13:51 37.4 °F 36.4 °F 30.08 in SE 18.0 mph 18.0 mph 96% 0.00 in 53.00 W/m2
13:56 37.4 °F 36.4 °F 30.08 in South 13.0 mph 16.0 mph 96% 0.00 in 47.00 W/m2
14:02 37.5 °F 36.5 °F 30.08 in South 6.0 mph 11.0 mph 96% 0.00 in 47.00 W/m2
14:07 37.5 °F 36.5 °F 30.08 in SSE 6.0 mph 15.0 mph 96% 0.00 in 47.00 W/m2
14:12 37.5 °F 36.5 °F 30.08 in SSE 11.0 mph 15.0 mph 96% 0.00 in 44.00 W/m2
14:17 37.5 °F 36.5 °F 30.08 in SSE 10.0 mph 14.0 mph 96% 0.00 in 40.00 W/m2
14:22 37.5 °F 36.5 °F 30.08 in SSE 13.0 mph 16.0 mph 96% 0.05 in 32.00 W/m2
14:27 37.6 °F 36.6 °F 30.08 in SE 9.0 mph 15.0 mph 96% 0.05 in 32.00 W/m2
14:32 37.7 °F 36.7 °F 30.08 in SSE 2.0 mph 24.0 mph 96% 0.06 in 30.00 W/m2
14:37 37.6 °F 36.6 °F 30.08 in SSE 4.0 mph 17.0 mph 96% 0.12 in 32.00 W/m2
14:42 37.6 °F 36.6 °F 30.08 in South 18.0 mph 18.0 mph 96% 0.08 in 26.00 W/m2
14:47 37.7 °F 36.7 °F 30.08 in South 9.0 mph 24.0 mph 96% 0.08 in 25.00 W/m2
14:52 37.7 °F 36.7 °F 30.08 in SSE 13.0 mph 14.0 mph 96% 0.09 in 23.00 W/m2
14:57 37.7 °F 36.7 °F 30.08 in SSE 7.0 mph 14.0 mph 96% 0.10 in 18.00 W/m2
15:02 37.6 °F 36.6 °F 30.08 in South 6.0 mph 21.0 mph 96% 0.14 in 18.00 W/m2
15:07 37.6 °F 36.6 °F 30.08 in South 11.0 mph 19.0 mph 96% 0.13 in 16.00 W/m2
15:12 37.6 °F 36.6 °F 30.08 in SSE 4.0 mph 19.0 mph 96% 0.15 in 14.00 W/m2
15:17 37.5 °F 36.5 °F 30.08 in SSE 11.0 mph 15.0 mph 96% 0.14 in 11.00 W/m2
15:22 37.4 °F 36.4 °F 30.08 in South 10.0 mph 15.0 mph 96% 0.14 in 12.00 W/m2
15:27 37.3 °F 36.3 °F 30.08 in SSE 10.0 mph 16.0 mph 96% 0.14 in 12.00 W/m2
15:32 37.3 °F 36.3 °F 30.08 in South 13.0 mph 24.0 mph 96% 0.13 in 12.00 W/m2
15:37 37.2 °F 36.2 °F 30.08 in SE 11.0 mph 17.0 mph 96% 0.17 in 9.00 W/m2
15:42 37.1 °F 36.1 °F 30.08 in SE 19.0 mph 22.0 mph 96% 0.10 in 9.00 W/m2
15:47 37.1 °F 36.1 °F 30.08 in SE 11.0 mph 23.0 mph 96% 0.10 in 9.00 W/m2
15:52 37.1 °F 36.1 °F 30.08 in SSE 16.0 mph 19.0 mph 96% 0.08 in 9.00 W/m2
15:57 37.0 °F 36.0 °F 30.08 in SSW 9.0 mph 22.0 mph 96% 0.07 in 7.00 W/m2
16:02 37.0 °F 36.0 °F 30.07 in ESE 21.0 mph 27.0 mph 96% 0.07 in 7.00 W/m2
16:07 36.9 °F 35.9 °F 30.07 in South 11.0 mph 21.0 mph 96% 0.07 in 7.00 W/m2
16:12 36.9 °F 35.9 °F 30.06 in SSE 8.0 mph 21.0 mph 96% 0.07 in 5.00 W/m2
16:17 36.9 °F 35.9 °F 30.06 in SE 14.0 mph 18.0 mph 96% 0.06 in 5.00 W/m2
16:22 36.8 °F 35.8 °F 30.06 in South 8.0 mph 32.0 mph 96% 0.06 in 5.00 W/m2
16:27 36.8 °F 35.8 °F 30.06 in SE 15.0 mph 28.0 mph 96% 0.06 in 5.00 W/m2
16:32 36.8 °F 35.8 °F 30.05 in SE 10.0 mph 19.0 mph 96% 0.06 in 5.00 W/m2
16:37 36.7 °F 35.7 °F 30.05 in SE 13.0 mph 21.0 mph 96% 0.05 in 0.00 W/m2
16:42 36.7 °F 35.7 °F 30.05 in SSE 8.0 mph 23.0 mph 96% 0.04 in 0.00 W/m2
16:48 36.7 °F 35.7 °F 30.04 in SE 17.0 mph 32.0 mph 96% 0.04 in 0.00 W/m2
16:53 36.7 °F 35.7 °F 30.03 in SSE 12.0 mph 27.0 mph 96% 0.05 in 0.00 W/m2
16:58 36.8 °F 35.8 °F 30.03 in SE 8.0 mph 22.0 mph 96% 0.05 in 0.00 W/m2
17:03 36.8 °F 35.8 °F 30.03 in SE 5.0 mph 23.0 mph 96% 0.05 in 0.00 W/m2
17:08 36.9 °F 35.9 °F 30.03 in SE 12.0 mph 22.0 mph 96% 0.04 in 0.00 W/m2
17:13 36.9 °F 35.9 °F 30.03 in South 10.0 mph 18.0 mph 96% 0.00 in 0.00 W/m2
17:18 36.9 °F 35.9 °F 30.02 in SE 14.0 mph 22.0 mph 96% 0.00 in 0.00 W/m2
17:23 37.0 °F 36.0 °F 30.02 in SSE 15.0 mph 17.0 mph 96% 0.00 in 0.00 W/m2
17:28 37.0 °F 36.0 °F 30.02 in South 12.0 mph 24.0 mph 96% 0.00 in 0.00 W/m2
17:33 37.2 °F 36.2 °F 30.01 in Calm   27.0 mph 96% 0.00 in 0.00 W/m2
17:38 37.3 °F 36.3 °F 30.01 in SE 6.0 mph 22.0 mph 96% 0.00 in 0.00 W/m2
17:43 37.4 °F 36.4 °F 30.01 in South 4.0 mph 22.0 mph 96% 0.00 in 0.00 W/m2
17:48 37.5 °F 36.5 °F 30.01 in SSE 19.0 mph 21.0 mph 96% 0.00 in 0.00 W/m2
17:53 37.6 °F 36.6 °F 30.01 in South 15.0 mph 24.0 mph 96% 0.00 in 0.00 W/m2
17:58 37.7 °F 36.7 °F 30.02 in SSE 15.0 mph 27.0 mph 96% 0.07 in 0.00 W/m2
18:03 37.9 °F 36.9 °F 30.01 in SSE 14.0 mph 33.0 mph 96% 0.07 in 0.00 W/m2
18:08 38.1 °F 37.1 °F 30.01 in SE 13.0 mph 30.0 mph 96% 0.08 in 0.00 W/m2
18:13 38.2 °F 37.2 °F 30.00 in SE 20.0 mph 27.0 mph 96% 0.06 in 0.00 W/m2
18:18 38.4 °F 37.4 °F 30.00 in SE 12.0 mph 18.0 mph 96% 0.04 in 0.00 W/m2
18:23 38.5 °F 37.5 °F 30.00 in SSE 10.0 mph 27.0 mph 96% 0.00 in 0.00 W/m2
18:28 38.6 °F 37.6 °F 30.00 in ESE 12.0 mph 24.0 mph 96% 0.00 in 0.00 W/m2
18:33 38.6 °F 37.6 °F 30.00 in SSE 12.0 mph 28.0 mph 96% 0.00 in 0.00 W/m2
18:38 38.7 °F 37.7 °F 29.99 in SSE 28.0 mph 28.0 mph 96% 0.00 in 0.00 W/m2
18:43 38.8 °F 37.8 °F 29.99 in SSE 15.0 mph 27.0 mph 96% 0.00 in 0.00 W/m2
18:48 38.9 °F 37.9 °F 29.99 in ESE 29.0 mph 29.0 mph 96% 0.00 in 0.00 W/m2
18:53 38.9 °F 37.9 °F 30.00 in SSE 12.0 mph 25.0 mph 96% 0.00 in 0.00 W/m2
18:58 38.9 °F 37.9 °F 29.99 in SE 9.0 mph 23.0 mph 96% 0.00 in 0.00 W/m2
19:03 38.9 °F 37.9 °F 30.00 in SE 6.0 mph 22.0 mph 96% 0.00 in 0.00 W/m2
19:08 39.0 °F 38.0 °F 30.00 in SE 13.0 mph 29.0 mph 96% 0.00 in 0.00 W/m2
19:13 39.2 °F 38.2 °F 30.00 in SSE 10.0 mph 26.0 mph 96% 0.00 in 0.00 W/m2
19:18 39.4 °F 38.4 °F 30.00 in SE 12.0 mph 23.0 mph 96% 0.00 in 0.00 W/m2
19:23 39.6 °F 38.6 °F 30.00 in South 12.0 mph 23.0 mph 96% 0.00 in 0.00 W/m2
19:28 39.8 °F 38.8 °F 30.00 in SSE 15.0 mph 23.0 mph 96% 0.00 in 0.00 W/m2
19:33 39.9 °F 38.8 °F 30.01 in SSE 7.0 mph 25.0 mph 96% 0.05 in 0.00 W/m2
19:38 39.9 °F 38.8 °F 30.01 in ESE 6.0 mph 26.0 mph 96% 0.10 in 0.00 W/m2
19:43 40.0 °F 39.0 °F 30.01 in SSE 10.0 mph 19.0 mph 96% 0.10 in 0.00 W/m2
19:48 40.1 °F 39.0 °F 30.00 in SE 8.0 mph 27.0 mph 96% 0.18 in 0.00 W/m2
19:53 40.2 °F 39.2 °F 30.01 in South 11.0 mph 21.0 mph 96% 0.21 in 0.00 W/m2
19:58 40.2 °F 39.2 °F 30.01 in South 4.0 mph 20.0 mph 96% 0.25 in 0.00 W/m2
20:03 40.2 °F 39.2 °F 30.00 in SSE 21.0 mph 24.0 mph 96% 0.17 in 0.00 W/m2
20:08 40.3 °F 39.2 °F 30.00 in SSE 13.0 mph 26.0 mph 96% 0.18 in 0.00 W/m2
20:13 40.3 °F 39.2 °F 30.00 in SSE 14.0 mph 20.0 mph 96% 0.21 in 0.00 W/m2
20:18 40.3 °F 39.2 °F 30.00 in SSE 9.0 mph 22.0 mph 96% 0.08 in 0.00 W/m2
20:24 40.4 °F 39.3 °F 30.00 in SSE 7.0 mph 23.0 mph 96% 0.05 in 0.00 W/m2
20:29 40.4 °F 39.3 °F 30.00 in SSE 18.0 mph 20.0 mph 96% 0.05 in 0.00 W/m2
20:34 40.5 °F 39.5 °F 30.00 in SE 21.0 mph 21.0 mph 96% 0.05 in 0.00 W/m2
20:39 40.5 °F 39.5 °F 29.99 in South 9.0 mph 25.0 mph 96% 0.04 in 0.00 W/m2
20:44 40.5 °F 39.5 °F 29.99 in SE 12.0 mph 27.0 mph 96% 0.00 in 0.00 W/m2
20:49 40.6 °F 39.5 °F 29.99 in SSE 6.0 mph 31.0 mph 96% 0.00 in 0.00 W/m2
20:54 40.6 °F 39.5 °F 29.99 in SE 15.0 mph 23.0 mph 96% 0.00 in 0.00 W/m2
20:59 40.7 °F 39.7 °F 29.99 in SE 15.0 mph 26.0 mph 96% 0.00 in 0.00 W/m2
21:04 40.7 °F 39.7 °F 29.99 in South 13.0 mph 23.0 mph 96% 0.00 in 0.00 W/m2
21:09 40.8 °F 39.8 °F 29.98 in SSE 10.0 mph 23.0 mph 96% 0.00 in 0.00 W/m2
21:14 40.9 °F 39.8 °F 29.98 in SE 15.0 mph 27.0 mph 96% 0.04 in 0.00 W/m2
21:19 41.0 °F 40.0 °F 29.98 in SSE 7.0 mph 24.0 mph 96% 0.07 in 0.00 W/m2
21:24 41.0 °F 40.0 °F 29.98 in East 5.0 mph 31.0 mph 96% 0.07 in 0.00 W/m2
21:29 41.1 °F 40.0 °F 29.99 in South 10.0 mph 32.0 mph 96% 0.05 in 0.00 W/m2
21:34 41.3 °F 40.2 °F 29.98 in SE 17.0 mph 31.0 mph 96% 0.04 in 0.00 W/m2
21:39 41.5 °F 40.5 °F 29.97 in South 19.0 mph 25.0 mph 96% 0.04 in 0.00 W/m2
21:44 41.6 °F 40.5 °F 29.96 in SSE 12.0 mph 26.0 mph 96% 0.04 in 0.00 W/m2
21:49 41.7 °F 40.7 °F 29.97 in SSE 30.0 mph 32.0 mph 96% 0.05 in 0.00 W/m2
21:54 41.8 °F 40.8 °F 29.97 in SSE 19.0 mph 42.0 mph 96% 0.10 in 0.00 W/m2
21:59 42.1 °F 41.0 °F 29.97 in SSE 12.0 mph 31.0 mph 96% 0.15 in 0.00 W/m2
22:04 42.2 °F 41.4 °F 29.97 in SSW 18.0 mph 26.0 mph 97% 0.08 in 0.00 W/m2
22:09 42.2 °F 41.4 °F 29.97 in South 13.0 mph 25.0 mph 97% 0.15 in 0.00 W/m2
22:14 42.3 °F 41.5 °F 29.96 in SSE 11.0 mph 25.0 mph 97% 0.23 in 0.00 W/m2
22:19 42.3 °F 41.5 °F 29.96 in SE 18.0 mph 28.0 mph 97% 0.09 in 0.00 W/m2
22:24 42.4 °F 41.3 °F 29.96 in SSE 21.0 mph 29.0 mph 96% 0.09 in 0.00 W/m2
22:29 42.5 °F 41.4 °F 29.95 in SSE 17.0 mph 25.0 mph 96% 0.05 in 0.00 W/m2
22:34 42.6 °F 41.5 °F 29.96 in SSE 18.0 mph 25.0 mph 96% 0.37 in 0.00 W/m2
22:39 42.7 °F 41.6 °F 29.95 in SSW 17.0 mph 30.0 mph 96% 0.10 in 0.00 W/m2
22:44 42.7 °F 41.6 °F 29.95 in South 6.0 mph 28.0 mph 96% 0.07 in 0.00 W/m2
22:49 42.8 °F 42.0 °F 29.96 in South 14.0 mph 27.0 mph 97% 0.09 in 0.00 W/m2
22:54 42.9 °F 42.1 °F 29.97 in SSE 16.0 mph 28.0 mph 97% 0.20 in 0.00 W/m2
22:59 43.0 °F 42.2 °F 29.96 in South 11.0 mph 32.0 mph 97% 0.16 in 0.00 W/m2
23:04 43.1 °F 42.0 °F 29.97 in SE 7.0 mph 26.0 mph 96% 0.13 in 0.00 W/m2
23:09 43.2 °F 42.1 °F 29.96 in South 15.0 mph 24.0 mph 96% 0.20 in 0.00 W/m2
23:14 43.3 °F 42.2 °F 29.95 in SSW 16.0 mph 30.0 mph 96% 0.10 in 0.00 W/m2
23:19 43.3 °F 42.2 °F 29.95 in SSE 11.0 mph 29.0 mph 96% 0.07 in 0.00 W/m2
23:24 43.4 °F 42.3 °F 29.97 in SSW 22.0 mph 26.0 mph 96% 0.10 in 0.00 W/m2
23:29 43.4 °F 42.6 °F 29.96 in South 16.0 mph 27.0 mph 97% 0.09 in 0.00 W/m2
23:34 43.5 °F 42.7 °F 29.95 in SSE 13.0 mph 24.0 mph 97% 0.05 in 0.00 W/m2
23:39 43.6 °F 42.8 °F 29.96 in South 12.0 mph 23.0 mph 97% 0.18 in 0.00 W/m2
23:44 43.7 °F 42.9 °F 29.95 in South 10.0 mph 25.0 mph 97% 0.14 in 0.00 W/m2
23:49 43.8 °F 43.0 °F 29.96 in SSE 19.0 mph 30.0 mph 97% 0.29 in 0.00 W/m2
23:54 44.0 °F 43.2 °F 29.95 in SSE 20.0 mph 30.0 mph 97% 0.30 in 0.00 W/m2
Foresthill Weather
 WU-history PHP script courtesy of   Juneau County Weather.
powered by Cumulus v1.9.3 (1059)
Ambient Weather VWS v14.00
Top Contact Website Map Copyright © 2007 - 2018 Foresthillweather.com Never base important decisions on this or any weather information obtained from the Internet